createdAt,value
2018-07-12T00:00:48.789Z,100.00
2018-07-12T00:03:14.804Z,100.00
2018-07-12T00:05:40.841Z,100.00
2018-07-12T00:08:06.873Z,100.00
2018-07-12T00:10:33.020Z,100.00
2018-07-12T00:12:59.044Z,100.00
2018-07-12T00:15:25.072Z,100.00
2018-07-12T00:17:51.085Z,100.00
2018-07-12T00:20:17.114Z,100.00
2018-07-12T00:22:43.149Z,100.00
2018-07-12T00:25:09.191Z,100.00
2018-07-12T00:27:35.221Z,100.00
2018-07-12T00:30:01.265Z,100.00
2018-07-12T00:32:27.294Z,100.00
2018-07-12T00:34:53.393Z,100.00
2018-07-12T00:37:19.685Z,100.00
2018-07-12T00:39:45.744Z,100.00
2018-07-12T00:42:11.765Z,100.00
2018-07-12T00:44:37.793Z,100.00
2018-07-12T00:47:03.813Z,100.00
2018-07-12T00:49:29.836Z,100.00
2018-07-12T00:51:55.860Z,100.00
2018-07-12T00:54:21.929Z,100.00
2018-07-12T00:56:47.996Z,100.00
2018-07-12T00:59:14.006Z,100.00
2018-07-12T01:01:40.065Z,100.00
2018-07-12T01:04:06.112Z,100.00
2018-07-12T01:06:32.202Z,100.00
2018-07-12T01:08:58.244Z,100.00
2018-07-12T01:11:24.269Z,100.00
2018-07-12T01:13:50.269Z,100.00
2018-07-12T01:16:16.297Z,100.00
2018-07-12T01:18:42.316Z,100.00
2018-07-12T01:21:08.367Z,100.00
2018-07-12T01:23:34.381Z,100.00
2018-07-12T01:26:00.418Z,100.00
2018-07-12T01:28:26.444Z,100.00
2018-07-12T01:30:52.480Z,100.00
2018-07-12T01:33:18.505Z,100.00
2018-07-12T01:35:44.535Z,100.00
2018-07-12T01:38:10.564Z,100.00
2018-07-12T01:40:36.581Z,100.00
2018-07-12T01:43:02.605Z,100.00
2018-07-12T01:45:28.636Z,100.00
2018-07-12T01:47:54.670Z,100.00
2018-07-12T01:50:20.687Z,100.00
2018-07-12T01:52:46.700Z,100.00
2018-07-12T01:55:12.725Z,100.00
2018-07-12T01:57:38.753Z,100.00
2018-07-12T02:00:04.770Z,100.00
2018-07-12T02:02:30.794Z,100.00
2018-07-12T02:04:56.822Z,100.00
2018-07-12T02:07:22.865Z,100.00
2018-07-12T02:09:48.887Z,100.00
2018-07-12T02:12:14.915Z,100.00
2018-07-12T02:14:40.928Z,100.00
2018-07-12T02:17:06.963Z,100.00
2018-07-12T02:19:32.984Z,100.00
2018-07-12T02:21:59.008Z,100.00
2018-07-12T02:24:25.050Z,100.00
2018-07-12T02:26:51.069Z,100.00
2018-07-12T02:29:17.084Z,100.00
2018-07-12T02:31:43.100Z,100.00
2018-07-12T02:34:09.125Z,100.00
2018-07-12T02:36:35.151Z,100.00
2018-07-12T02:39:01.183Z,100.00
2018-07-12T02:41:27.205Z,100.00
2018-07-12T02:43:53.225Z,100.00
2018-07-12T02:46:19.255Z,100.00
2018-07-12T02:48:45.276Z,100.00
2018-07-12T02:51:11.306Z,100.00
2018-07-12T02:53:37.326Z,100.00
2018-07-12T02:56:03.463Z,100.00
2018-07-12T02:58:29.484Z,100.00
2018-07-12T03:00:55.508Z,100.00
2018-07-12T03:03:21.525Z,100.00
2018-07-12T03:05:47.540Z,100.00
2018-07-12T03:08:13.590Z,100.00
2018-07-12T03:10:39.585Z,100.00
2018-07-12T03:13:05.611Z,100.00
2018-07-12T03:15:31.635Z,100.00
2018-07-12T03:17:57.647Z,100.00
2018-07-12T03:20:23.654Z,100.00
2018-07-12T03:22:49.672Z,100.00
2018-07-12T03:25:15.693Z,100.00
2018-07-12T03:27:41.708Z,100.00
2018-07-12T03:30:07.737Z,100.00
2018-07-12T03:32:33.773Z,100.00
2018-07-12T03:34:59.803Z,100.00
2018-07-12T03:37:25.837Z,100.00
2018-07-12T03:39:51.878Z,100.00
2018-07-12T03:42:17.917Z,100.00
2018-07-12T03:44:43.954Z,100.00
2018-07-12T03:47:09.993Z,100.00
2018-07-12T03:49:36.022Z,100.00
2018-07-12T03:52:02.065Z,100.00
2018-07-12T03:54:28.093Z,100.00
2018-07-12T03:56:54.152Z,100.00
2018-07-12T03:59:20.193Z,100.00
2018-07-12T04:01:46.230Z,100.00
2018-07-12T04:04:12.253Z,100.00
2018-07-12T04:06:38.296Z,100.00
2018-07-12T04:09:04.923Z,100.00
2018-07-12T04:11:30.965Z,100.00
2018-07-12T04:13:57.004Z,100.00
2018-07-12T04:16:23.036Z,100.00
2018-07-12T04:18:49.053Z,100.00
2018-07-12T04:21:15.087Z,100.00
2018-07-12T04:23:41.104Z,100.00
2018-07-12T04:26:07.132Z,100.00
2018-07-12T04:28:33.163Z,100.00
2018-07-12T04:30:59.196Z,100.00
2018-07-12T04:33:25.234Z,100.00
2018-07-12T04:35:51.256Z,100.00
2018-07-12T04:38:17.285Z,100.00
2018-07-12T04:40:43.304Z,100.00
2018-07-12T04:43:09.336Z,100.00
2018-07-12T04:45:35.356Z,100.00
2018-07-12T04:48:01.402Z,100.00
2018-07-12T04:50:27.428Z,100.00
2018-07-12T04:52:53.454Z,100.00
2018-07-12T04:55:19.473Z,100.00
2018-07-12T04:57:45.528Z,100.00
2018-07-12T05:00:11.561Z,100.00
2018-07-12T05:02:37.589Z,100.00
2018-07-12T05:05:03.618Z,100.00
2018-07-12T05:07:29.653Z,100.00
2018-07-12T05:09:55.686Z,100.00
2018-07-12T05:12:21.725Z,100.00
2018-07-12T05:14:47.761Z,100.00
2018-07-12T05:17:13.808Z,100.00
2018-07-12T05:19:39.845Z,100.00
2018-07-12T05:22:05.886Z,100.00
2018-07-12T05:24:31.915Z,100.00
2018-07-12T05:26:57.953Z,100.00
2018-07-12T05:29:23.992Z,100.00
2018-07-12T05:31:50.044Z,100.00
2018-07-12T05:34:16.060Z,100.00
2018-07-12T05:36:54.735Z,100.00
2018-07-12T05:39:21.688Z,100.00
2018-07-12T05:41:48.704Z,100.00
2018-07-12T05:44:16.181Z,100.00
2018-07-12T05:46:43.238Z,100.00
2018-07-12T05:49:10.133Z,100.00
2018-07-12T05:51:37.037Z,100.00
2018-07-12T05:54:03.965Z,100.00
2018-07-12T05:56:30.869Z,100.00
2018-07-12T05:58:57.804Z,100.00
2018-07-12T06:01:36.241Z,100.00
2018-07-12T06:04:03.185Z,100.00
2018-07-12T06:06:30.093Z,100.00
2018-07-12T06:08:57.031Z,100.00
2018-07-12T06:11:23.949Z,100.00
2018-07-12T06:13:50.873Z,100.00
2018-07-12T06:16:17.796Z,100.00
2018-07-12T06:18:44.716Z,100.00
2018-07-12T06:21:11.648Z,100.00
2018-07-12T06:23:38.557Z,100.00
2018-07-12T06:26:05.497Z,100.00
2018-07-12T06:28:32.407Z,100.00
2018-07-12T06:30:59.328Z,100.00
2018-07-12T06:33:26.261Z,100.00
2018-07-12T06:35:53.177Z,100.00
2018-07-12T06:38:20.104Z,100.00
2018-07-12T06:40:47.005Z,100.00
2018-07-12T06:43:13.937Z,100.00
2018-07-12T06:45:40.849Z,100.00
2018-07-12T06:48:07.797Z,100.00
2018-07-12T06:50:34.710Z,100.00
2018-07-12T06:53:01.649Z,100.00
2018-07-12T06:55:28.559Z,100.00
2018-07-12T07:00:28.209Z,100.00
2018-07-12T07:02:55.124Z,100.00
2018-07-12T07:05:22.065Z,100.00
2018-07-12T07:07:48.986Z,100.00
2018-07-12T07:10:15.907Z,100.00
2018-07-12T07:12:42.845Z,100.00
2018-07-12T07:15:09.748Z,100.00
2018-07-12T07:17:36.649Z,100.00
2018-07-12T07:20:03.577Z,100.00
2018-07-12T07:22:30.482Z,100.00
2018-07-12T07:24:57.405Z,100.00
2018-07-12T07:27:24.313Z,100.00
2018-07-12T07:29:51.232Z,100.00
2018-07-12T07:32:18.347Z,100.00
2018-07-12T07:34:45.256Z,100.00
2018-07-12T07:37:12.165Z,100.00
2018-07-12T07:39:39.084Z,100.00
2018-07-12T07:42:06.000Z,100.00
2018-07-12T07:44:32.934Z,100.00
2018-07-12T07:46:59.861Z,100.00
2018-07-12T07:49:26.791Z,98.64
2018-07-12T07:51:53.710Z,95.42
2018-07-12T07:54:20.628Z,96.67
2018-07-12T07:56:47.544Z,92.62
2018-07-12T07:59:14.488Z,93.15
2018-07-12T08:01:41.422Z,88.38
2018-07-12T08:04:08.348Z,85.09
2018-07-12T08:06:35.254Z,85.08
2018-07-12T08:09:02.292Z,81.49
2018-07-12T08:11:29.185Z,79.61
2018-07-12T08:13:56.082Z,78.32
2018-07-12T08:16:23.023Z,73.39
2018-07-12T08:18:49.893Z,75.15
2018-07-12T08:21:16.794Z,77.74
2018-07-12T08:23:44.816Z,77.74
2018-07-12T08:26:11.736Z,77.43
2018-07-12T08:28:38.628Z,80.18
2018-07-12T08:31:05.582Z,79.86
2018-07-12T08:33:32.476Z,80.34
2018-07-12T08:35:59.369Z,81.14
2018-07-12T08:38:26.281Z,81.34
2018-07-12T08:40:53.191Z,79.86
2018-07-12T08:43:20.093Z,80.36
2018-07-12T08:45:47.014Z,75.40
2018-07-12T08:48:13.934Z,75.78
2018-07-12T08:50:40.868Z,74.10
2018-07-12T08:53:08.052Z,70.52
2018-07-12T08:55:34.893Z,74.52
2018-07-12T08:58:01.800Z,72.90
2018-07-12T09:00:28.713Z,72.25
2018-07-12T09:02:55.606Z,68.30
2018-07-12T09:05:22.513Z,65.23
2018-07-12T09:07:49.404Z,64.21
2018-07-12T09:10:16.292Z,66.29
2018-07-12T09:12:43.449Z,65.73
2018-07-12T09:15:10.433Z,60.62
2018-07-12T09:17:37.333Z,58.64
2018-07-12T09:20:04.305Z,56.40
2018-07-12T09:22:31.265Z,54.81
2018-07-12T09:24:58.193Z,46.48
2018-07-12T09:27:25.143Z,55.14
2018-07-12T09:29:52.067Z,54.01
2018-07-12T09:32:19.228Z,50.75
2018-07-12T09:34:46.217Z,51.89
2018-07-12T09:37:13.093Z,51.27
2018-07-12T09:39:40.044Z,50.96
2018-07-12T09:42:07.009Z,49.96
2018-07-12T09:44:33.909Z,51.58
2018-07-12T09:47:00.820Z,48.49
2018-07-12T09:49:27.708Z,46.03
2018-07-12T09:51:54.621Z,43.99
2018-07-12T09:54:21.542Z,44.00
2018-07-12T09:57:00.118Z,43.34
2018-07-12T09:59:27.040Z,40.31
2018-07-12T10:01:59.616Z,41.22
2018-07-12T10:04:27.153Z,39.63
2018-07-12T10:06:59.925Z,38.88
2018-07-12T10:09:32.662Z,39.61
2018-07-12T10:12:05.341Z,39.81
2018-07-12T10:14:38.125Z,42.53
2018-07-12T10:17:11.213Z,40.72
2018-07-12T10:19:38.377Z,40.00
2018-07-12T10:22:05.532Z,40.89
2018-07-12T10:24:32.436Z,43.51
2018-07-12T10:26:59.347Z,43.13
2018-07-12T10:29:26.256Z,43.87
2018-07-12T10:31:53.160Z,44.90
2018-07-12T10:34:20.053Z,44.02
2018-07-12T10:36:46.964Z,37.42
2018-07-12T10:39:13.868Z,37.44
2018-07-12T10:41:40.801Z,39.02
2018-07-12T10:44:07.689Z,40.46
2018-07-12T10:46:34.593Z,39.81
2018-07-12T10:49:01.509Z,40.54
2018-07-12T10:51:28.441Z,37.65
2018-07-12T10:53:55.353Z,38.29
2018-07-12T10:56:22.279Z,39.55
2018-07-12T10:58:49.222Z,40.11
2018-07-12T11:01:16.149Z,40.68
2018-07-12T11:03:43.050Z,42.51
2018-07-12T11:06:09.961Z,43.15
2018-07-12T11:08:36.875Z,39.95
2018-07-12T11:11:03.809Z,39.72
2018-07-12T11:13:42.348Z,39.79
2018-07-12T11:16:09.266Z,42.35
2018-07-12T11:18:36.161Z,45.25
2018-07-12T11:21:03.105Z,45.09
2018-07-12T11:23:29.992Z,47.05
2018-07-12T11:25:56.905Z,47.15
2018-07-12T11:28:23.810Z,47.91
2018-07-12T11:30:50.740Z,45.88
2018-07-12T11:33:32.137Z,43.57
2018-07-12T11:35:59.102Z,41.39
2018-07-12T11:38:26.004Z,38.34
2018-07-12T11:40:52.913Z,37.64
2018-07-12T11:43:19.827Z,37.58
2018-07-12T11:45:46.736Z,39.81
2018-07-12T11:48:13.667Z,44.62
2018-07-12T11:50:40.562Z,45.76
2018-07-12T11:53:07.493Z,46.04
2018-07-12T11:55:34.412Z,45.09
2018-07-12T11:58:01.340Z,47.69
2018-07-12T12:00:28.241Z,47.66
2018-07-12T12:02:55.153Z,49.02
2018-07-12T12:05:22.076Z,49.02
2018-07-12T12:07:48.989Z,49.12
2018-07-12T12:10:15.880Z,47.10
2018-07-12T12:12:42.795Z,44.90
2018-07-12T12:15:09.704Z,43.93
2018-07-12T12:17:36.641Z,44.30
2018-07-12T12:20:03.571Z,45.80
2018-07-12T12:22:30.484Z,46.36
2018-07-12T12:24:57.394Z,47.89
2018-07-12T12:27:24.327Z,47.76
2018-07-12T12:29:51.232Z,46.83
2018-07-12T12:32:18.146Z,47.56
2018-07-12T12:34:45.050Z,48.05
2018-07-12T12:37:11.978Z,48.76
2018-07-12T12:39:38.880Z,47.90
2018-07-12T12:42:05.780Z,48.63
2018-07-12T12:44:32.677Z,48.29
2018-07-12T12:46:59.592Z,47.23
2018-07-12T12:49:26.501Z,47.35
2018-07-12T12:51:53.565Z,47.63
2018-07-12T12:54:20.482Z,47.46
2018-07-12T12:56:47.388Z,46.45
2018-07-12T12:59:14.729Z,44.23
2018-07-12T13:01:42.224Z,41.91
2018-07-12T13:04:09.160Z,40.62
2018-07-12T13:06:36.048Z,40.07
2018-07-12T13:09:04.714Z,39.76
2018-07-12T13:11:31.771Z,39.91
2018-07-12T13:14:00.068Z,41.90
2018-07-12T13:16:27.017Z,41.94
2018-07-12T13:18:53.930Z,41.69
2018-07-12T13:21:20.829Z,42.85
2018-07-12T13:23:47.957Z,43.52
2018-07-12T13:26:14.868Z,43.66
2018-07-12T13:28:41.782Z,43.96
2018-07-12T13:31:08.692Z,43.84
2018-07-12T13:33:35.602Z,42.91
2018-07-12T13:36:02.503Z,43.31
2018-07-12T13:38:29.416Z,42.31
2018-07-12T13:40:56.338Z,39.92
2018-07-12T13:43:23.316Z,39.91
2018-07-12T13:45:50.306Z,39.22
2018-07-12T13:48:17.249Z,39.45
2018-07-12T13:50:44.164Z,41.13
2018-07-12T13:53:11.180Z,41.86
2018-07-12T13:55:38.075Z,42.81
2018-07-12T13:58:05.072Z,42.88
2018-07-12T14:00:31.976Z,41.92
2018-07-12T14:02:58.881Z,40.72
2018-07-12T14:05:25.795Z,39.87
2018-07-12T14:07:52.709Z,38.33
2018-07-12T14:10:19.953Z,43.98
2018-07-12T14:12:46.863Z,47.80
2018-07-12T14:15:13.781Z,51.57
2018-07-12T14:17:40.698Z,51.14
2018-07-12T14:20:07.622Z,53.40
2018-07-12T14:22:34.524Z,52.37
2018-07-12T14:25:01.499Z,51.17
2018-07-12T14:27:28.449Z,50.64
2018-07-12T14:29:55.357Z,49.10
2018-07-12T14:32:22.266Z,45.54
2018-07-12T14:34:50.044Z,45.94
2018-07-12T14:37:16.962Z,47.63
2018-07-12T14:39:43.837Z,49.81
2018-07-12T14:42:10.769Z,48.74
2018-07-12T14:44:37.673Z,47.08
2018-07-12T14:47:04.606Z,47.09
2018-07-12T14:49:31.462Z,48.65
2018-07-12T14:51:58.544Z,48.86
2018-07-12T14:54:25.636Z,48.61
2018-07-12T14:56:52.976Z,48.98
2018-07-12T14:59:19.922Z,49.31
2018-07-12T15:01:46.824Z,48.16
2018-07-12T15:04:13.748Z,48.01
2018-07-12T15:06:40.706Z,48.64
2018-07-12T15:09:08.329Z,48.76
2018-07-12T15:11:35.217Z,48.38
2018-07-12T15:14:02.130Z,47.98
2018-07-12T15:16:29.042Z,47.54
2018-07-12T15:18:55.983Z,47.44
2018-07-12T15:21:23.044Z,46.73
2018-07-12T15:23:49.947Z,46.51
2018-07-12T15:26:16.890Z,47.32
2018-07-12T15:28:43.810Z,47.71
2018-07-12T15:31:10.745Z,47.89
2018-07-12T15:33:37.669Z,47.67
2018-07-12T15:36:04.594Z,48.36
2018-07-12T15:38:31.577Z,49.39
2018-07-12T15:40:58.688Z,49.49
2018-07-12T15:43:25.609Z,50.23
2018-07-12T15:45:52.528Z,51.80
2018-07-12T15:48:19.457Z,51.53
2018-07-12T15:50:46.391Z,49.82
2018-07-12T15:53:13.322Z,48.88
2018-07-12T15:55:40.236Z,49.80
2018-07-12T15:58:07.164Z,48.13
2018-07-12T16:00:34.087Z,48.17
2018-07-12T16:03:00.996Z,49.32
2018-07-12T16:05:27.901Z,49.57
2018-07-12T16:07:54.812Z,48.01
2018-07-12T16:10:21.721Z,48.71
2018-07-12T16:12:48.626Z,48.59
2018-07-12T16:15:15.548Z,49.79
2018-07-12T16:17:42.486Z,52.92
2018-07-12T16:20:09.400Z,52.03
2018-07-12T16:22:36.309Z,53.89
2018-07-12T16:25:03.317Z,54.92
2018-07-12T16:27:30.285Z,55.72
2018-07-12T16:29:57.231Z,56.84
2018-07-12T16:32:24.135Z,56.93
2018-07-12T16:34:51.315Z,55.73
2018-07-12T16:37:18.213Z,55.42
2018-07-12T16:39:45.149Z,56.15
2018-07-12T16:42:12.049Z,56.47
2018-07-12T16:44:39.025Z,55.74
2018-07-12T16:47:06.140Z,55.91
2018-07-12T16:49:33.033Z,56.54
2018-07-12T16:52:00.146Z,57.87
2018-07-12T16:54:27.060Z,58.90
2018-07-12T16:56:53.982Z,59.66
2018-07-12T16:59:21.030Z,60.43
2018-07-12T17:01:49.310Z,63.75
2018-07-12T17:04:18.030Z,64.93
2018-07-12T17:06:45.654Z,66.22
2018-07-12T17:09:12.649Z,66.29
2018-07-12T17:11:39.647Z,65.46
2018-07-12T17:14:06.628Z,65.89
2018-07-12T17:16:33.728Z,67.16
2018-07-12T17:19:01.677Z,67.83
2018-07-12T17:21:28.665Z,67.21
2018-07-12T17:23:55.759Z,67.68
2018-07-12T17:26:22.901Z,66.00
2018-07-12T17:28:50.054Z,65.46
2018-07-12T17:31:17.032Z,64.91
2018-07-12T17:33:43.938Z,64.27
2018-07-12T17:36:10.894Z,64.11
2018-07-12T17:38:37.825Z,63.75
2018-07-12T17:41:04.837Z,64.39
2018-07-12T17:43:31.694Z,63.88
2018-07-12T17:45:58.614Z,64.93
2018-07-12T17:48:25.574Z,64.61
2018-07-12T17:50:52.481Z,65.04
2018-07-12T17:53:19.396Z,64.40
2018-07-12T17:55:46.310Z,64.41
2018-07-12T17:58:13.229Z,65.57
2018-07-12T18:00:40.168Z,66.96
2018-07-12T18:03:07.067Z,68.00
2018-07-12T18:05:34.063Z,69.56
2018-07-12T18:08:00.899Z,73.28
2018-07-12T18:10:27.848Z,75.88
2018-07-12T18:12:54.777Z,78.75
2018-07-12T18:15:21.684Z,79.12
2018-07-12T18:17:48.612Z,80.94
2018-07-12T18:20:15.516Z,81.05
2018-07-12T18:22:42.437Z,81.73
2018-07-12T18:25:09.332Z,82.44
2018-07-12T18:27:36.853Z,82.35
2018-07-12T18:30:04.221Z,83.18
2018-07-12T18:32:31.128Z,85.55
2018-07-12T18:34:58.025Z,87.61
2018-07-12T18:37:24.945Z,89.24
2018-07-12T18:39:52.309Z,93.86
2018-07-12T18:42:19.257Z,97.65
2018-07-12T18:44:46.162Z,100.00
2018-07-12T18:47:13.060Z,100.00
2018-07-12T18:49:39.980Z,100.00
2018-07-12T18:52:06.920Z,100.00
2018-07-12T18:54:33.817Z,100.00
2018-07-12T18:57:00.740Z,100.00
2018-07-12T18:59:27.652Z,100.00
2018-07-12T19:01:54.570Z,100.00
2018-07-12T19:04:21.485Z,100.00
2018-07-12T19:06:48.404Z,100.00
2018-07-12T19:09:15.315Z,100.00
2018-07-12T19:11:42.213Z,100.00
2018-07-12T19:14:09.157Z,100.00
2018-07-12T19:16:36.069Z,100.00
2018-07-12T19:19:03.290Z,100.00
2018-07-12T19:21:30.200Z,100.00
2018-07-12T19:23:57.156Z,100.00
2018-07-12T19:26:24.174Z,100.00
2018-07-12T19:28:51.034Z,100.00
2018-07-12T19:31:17.968Z,100.00
2018-07-12T19:33:44.880Z,100.00
2018-07-12T19:36:11.802Z,100.00
2018-07-12T19:38:38.731Z,100.00
2018-07-12T19:41:05.678Z,100.00
2018-07-12T19:43:32.584Z,100.00
2018-07-12T19:45:59.513Z,100.00
2018-07-12T19:48:26.457Z,100.00
2018-07-12T19:50:53.373Z,100.00
2018-07-12T19:53:20.312Z,100.00
2018-07-12T19:55:47.235Z,100.00
2018-07-12T19:58:14.217Z,100.00
2018-07-12T20:00:41.168Z,100.00
2018-07-12T20:03:08.188Z,100.00
2018-07-12T20:05:35.108Z,100.00
2018-07-12T20:08:02.052Z,100.00
2018-07-12T20:10:29.035Z,100.00
2018-07-12T20:12:55.976Z,100.00
2018-07-12T20:15:22.893Z,100.00
2018-07-12T20:17:49.849Z,100.00
2018-07-12T20:20:16.804Z,100.00
2018-07-12T20:22:43.728Z,100.00
2018-07-12T20:25:10.692Z,100.00
2018-07-12T20:27:37.613Z,100.00
2018-07-12T20:30:05.065Z,100.00
2018-07-12T20:32:31.987Z,100.00
2018-07-12T20:34:58.893Z,100.00
2018-07-12T20:37:25.834Z,100.00
2018-07-12T20:39:52.740Z,100.00
2018-07-12T20:42:19.681Z,100.00
2018-07-12T20:44:46.600Z,100.00
2018-07-12T20:47:13.539Z,100.00
2018-07-12T20:49:40.459Z,100.00
2018-07-12T20:52:07.424Z,100.00
2018-07-12T20:54:34.352Z,100.00
2018-07-12T20:57:01.269Z,100.00
2018-07-12T20:59:28.185Z,100.00
2018-07-12T21:01:55.116Z,100.00
2018-07-12T21:04:22.048Z,100.00
2018-07-12T21:06:48.960Z,100.00
2018-07-12T21:09:15.866Z,100.00
2018-07-12T21:11:42.768Z,100.00
2018-07-12T21:14:09.705Z,100.00
2018-07-12T21:16:36.625Z,100.00
2018-07-12T21:19:03.573Z,100.00
2018-07-12T21:21:30.496Z,100.00
2018-07-12T21:23:57.429Z,100.00
2018-07-12T21:26:24.337Z,100.00
2018-07-12T21:28:51.270Z,100.00
2018-07-12T21:31:18.189Z,100.00
2018-07-12T21:33:45.121Z,100.00
2018-07-12T21:36:12.033Z,100.00
2018-07-12T21:38:38.963Z,100.00
2018-07-12T21:41:05.899Z,100.00
2018-07-12T21:43:39.674Z,100.00
2018-07-12T21:46:08.131Z,100.00
2018-07-12T21:48:35.076Z,100.00
2018-07-12T21:51:01.989Z,100.00
2018-07-12T21:53:28.916Z,100.00
2018-07-12T21:55:55.929Z,100.00
2018-07-12T21:58:23.285Z,100.00
2018-07-12T22:00:51.588Z,100.00
2018-07-12T22:03:18.616Z,100.00
2018-07-12T22:05:45.635Z,100.00
2018-07-12T22:08:16.152Z,100.00
2018-07-12T22:10:43.964Z,100.00
2018-07-12T22:13:11.480Z,100.00
2018-07-12T22:15:38.421Z,100.00
2018-07-12T22:18:05.677Z,100.00
2018-07-12T22:20:32.645Z,100.00
2018-07-12T22:23:04.404Z,100.00
2018-07-12T22:25:31.857Z,100.00
2018-07-12T22:27:59.713Z,100.00
2018-07-12T22:30:27.774Z,100.00
2018-07-12T22:33:00.160Z,100.00
2018-07-12T22:35:28.156Z,100.00
2018-07-12T22:37:59.645Z,100.00
2018-07-12T22:40:27.946Z,100.00
2018-07-12T22:42:54.918Z,100.00
2018-07-12T22:45:21.900Z,100.00
2018-07-12T22:47:50.150Z,100.00
2018-07-12T22:50:17.425Z,100.00
2018-07-12T22:52:44.353Z,100.00
2018-07-12T22:55:11.281Z,100.00
2018-07-12T22:57:38.208Z,100.00
2018-07-12T23:00:05.831Z,100.00
2018-07-12T23:02:32.745Z,100.00
2018-07-12T23:04:59.664Z,100.00
2018-07-12T23:07:26.574Z,100.00
2018-07-12T23:09:54.232Z,100.00
2018-07-12T23:12:21.195Z,100.00
2018-07-12T23:14:48.112Z,100.00
2018-07-12T23:17:16.300Z,100.00
2018-07-12T23:19:43.296Z,100.00
2018-07-12T23:22:10.221Z,100.00
2018-07-12T23:24:37.215Z,100.00
2018-07-12T23:27:04.158Z,100.00
2018-07-12T23:29:31.110Z,100.00
2018-07-12T23:31:58.033Z,100.00
2018-07-12T23:34:25.328Z,100.00
2018-07-12T23:36:52.738Z,100.00
2018-07-12T23:39:19.692Z,100.00
2018-07-12T23:41:47.657Z,100.00
2018-07-12T23:44:14.727Z,100.00
2018-07-12T23:46:43.067Z,100.00
2018-07-12T23:49:11.045Z,100.00
2018-07-12T23:51:39.390Z,100.00
2018-07-12T23:54:06.553Z,100.00
2018-07-12T23:56:36.233Z,100.00
2018-07-12T23:59:03.216Z,100.00
